createdAt,value
2019-03-20T05:01:03.587Z,96.83
2019-03-20T05:02:03.443Z,96.92
2019-03-20T05:03:56.106Z,97.02
2019-03-20T05:04:55.994Z,97.02
2019-03-20T05:06:58.344Z,96.73
2019-03-20T05:07:48.537Z,96.92
2019-03-20T05:09:41.191Z,96.83
2019-03-20T05:10:41.082Z,97.40
2019-03-20T05:12:33.765Z,96.73
2019-03-20T05:13:33.626Z,96.55
2019-03-20T05:15:26.287Z,96.83
2019-03-20T05:16:26.177Z,96.26
2019-03-20T05:18:18.861Z,96.17
2019-03-20T05:19:18.717Z,96.45
2019-03-20T05:21:11.375Z,96.92
2019-03-20T05:22:11.266Z,96.73
2019-03-20T05:24:03.936Z,97.02
2019-03-20T05:25:03.820Z,97.02
2019-03-20T05:26:56.470Z,97.02
2019-03-20T05:27:56.355Z,97.40
2019-03-20T05:29:49.029Z,96.73
2019-03-20T05:30:48.905Z,97.02
2019-03-20T05:32:41.564Z,96.26
2019-03-20T05:33:41.450Z,97.21
2019-03-20T05:35:34.134Z,96.45
2019-03-20T05:36:33.997Z,96.64
2019-03-20T05:38:26.677Z,96.36
2019-03-20T05:39:26.543Z,95.98
2019-03-20T05:41:19.383Z,96.45
2019-03-20T05:42:19.085Z,96.36
2019-03-20T05:44:12.742Z,96.55
2019-03-20T05:45:12.623Z,96.17
2019-03-20T05:47:05.299Z,96.17
2019-03-20T05:48:05.166Z,95.69
2019-03-20T05:49:57.828Z,95.98
2019-03-20T05:50:57.708Z,95.88
2019-03-20T05:52:50.385Z,96.08
2019-03-20T05:53:50.253Z,96.36
2019-03-20T05:55:42.917Z,95.79
2019-03-20T05:56:42.797Z,95.50
2019-03-20T05:58:35.474Z,95.41
2019-03-20T05:59:35.341Z,95.31
2019-03-20T06:01:27.998Z,95.31
2019-03-20T06:02:27.884Z,95.65
2019-03-20T06:04:20.572Z,95.22
2019-03-20T06:05:20.430Z,95.46
2019-03-20T06:07:21.032Z,94.79
2019-03-20T06:08:12.976Z,94.42
2019-03-20T06:10:06.367Z,94.79
2019-03-20T06:11:06.048Z,94.03
2019-03-20T06:12:58.884Z,94.03
2019-03-20T06:13:58.856Z,94.13
2019-03-20T06:15:51.284Z,93.65
2019-03-20T06:16:51.150Z,93.37
2019-03-20T06:18:43.809Z,93.89
2019-03-20T06:19:43.702Z,93.04
2019-03-20T06:21:36.379Z,93.04
2019-03-20T06:22:36.252Z,93.13
2019-03-20T06:24:28.923Z,92.09
2019-03-20T06:25:28.801Z,92.94
2019-03-20T06:27:21.524Z,91.80
2019-03-20T06:28:21.354Z,91.89
2019-03-20T06:30:14.026Z,91.42
2019-03-20T06:31:13.908Z,91.71
2019-03-20T06:33:06.593Z,91.52
2019-03-20T06:34:06.478Z,91.33
2019-03-20T06:35:59.129Z,91.47
2019-03-20T06:36:59.010Z,91.47
2019-03-20T06:38:51.700Z,90.90
2019-03-20T06:39:53.321Z,90.42
2019-03-20T06:41:44.221Z,90.05
2019-03-20T06:42:44.116Z,90.33
2019-03-20T06:44:36.784Z,89.86
2019-03-20T06:45:36.654Z,89.86
2019-03-20T06:47:29.313Z,90.52
2019-03-20T06:48:29.204Z,90.23
2019-03-20T06:50:21.879Z,90.33
2019-03-20T06:51:21.750Z,90.14
2019-03-20T06:53:14.417Z,90.42
2019-03-20T06:54:14.305Z,90.23
2019-03-20T06:56:06.983Z,90.23
2019-03-20T06:57:06.868Z,89.95
2019-03-20T06:58:59.512Z,89.76
2019-03-20T06:59:59.418Z,90.14
2019-03-20T07:01:52.086Z,90.14
2019-03-20T07:02:51.945Z,89.47
2019-03-20T07:04:44.604Z,88.76
2019-03-20T07:05:44.492Z,88.47
2019-03-20T07:07:43.920Z,88.38
2019-03-20T07:08:37.036Z,88.00
2019-03-20T07:10:29.694Z,87.90
2019-03-20T07:11:29.582Z,87.43
2019-03-20T07:13:22.257Z,86.86
2019-03-20T07:14:22.186Z,86.76
2019-03-20T07:16:14.795Z,87.34
2019-03-20T07:17:14.683Z,87.14
2019-03-20T07:19:07.359Z,87.71
2019-03-20T07:20:07.228Z,87.81
2019-03-20T07:21:59.887Z,87.67
2019-03-20T07:22:59.778Z,87.86
2019-03-20T07:24:52.460Z,88.28
2019-03-20T07:25:52.326Z,87.62
2019-03-20T07:27:44.997Z,87.62
2019-03-20T07:28:44.885Z,86.99
2019-03-20T07:30:37.566Z,85.47
2019-03-20T07:31:37.438Z,84.05
2019-03-20T07:33:30.104Z,83.14
2019-03-20T07:34:29.985Z,82.48
2019-03-20T07:36:22.667Z,82.00
2019-03-20T07:37:22.543Z,81.24
2019-03-20T07:39:15.224Z,80.86
2019-03-20T07:40:15.109Z,79.52
2019-03-20T07:42:07.798Z,80.33
2019-03-20T07:43:09.141Z,79.72
2019-03-20T07:45:00.343Z,80.29
2019-03-20T07:46:00.223Z,80.57
2019-03-20T07:47:52.911Z,82.28
2019-03-20T07:48:52.783Z,82.81
2019-03-20T07:50:45.448Z,83.48
2019-03-20T07:51:45.336Z,83.33
2019-03-20T07:53:38.019Z,83.62
2019-03-20T07:54:37.888Z,82.76
2019-03-20T07:56:30.551Z,80.80
2019-03-20T07:57:30.435Z,79.57
2019-03-20T07:59:23.116Z,78.71
2019-03-20T08:00:23.232Z,78.08
2019-03-20T08:02:15.657Z,77.42
2019-03-20T08:03:15.540Z,77.70
2019-03-20T08:05:08.230Z,76.75
2019-03-20T08:06:08.103Z,75.42
2019-03-20T08:08:07.061Z,74.79
2019-03-20T08:09:00.644Z,74.12
2019-03-20T08:10:53.331Z,73.83
2019-03-20T08:11:53.207Z,73.93
2019-03-20T08:13:45.874Z,74.31
2019-03-20T08:14:45.770Z,74.21
2019-03-20T08:16:38.453Z,74.12
2019-03-20T08:17:38.329Z,74.12
2019-03-20T08:19:30.991Z,74.31
2019-03-20T08:20:30.881Z,74.21
2019-03-20T08:22:23.563Z,74.40
2019-03-20T08:23:23.456Z,74.02
2019-03-20T08:25:16.107Z,74.02
2019-03-20T08:26:16.001Z,73.49
2019-03-20T08:28:08.684Z,74.16
2019-03-20T08:29:08.564Z,72.82
2019-03-20T08:31:01.279Z,72.41
2019-03-20T08:32:01.126Z,73.11
2019-03-20T08:33:53.811Z,72.92
2019-03-20T08:34:53.689Z,72.97
2019-03-20T08:36:46.360Z,73.93
2019-03-20T08:37:46.245Z,73.77
2019-03-20T08:39:38.930Z,72.63
2019-03-20T08:40:38.807Z,72.53
2019-03-20T08:42:31.478Z,73.01
2019-03-20T08:43:31.367Z,72.72
2019-03-20T08:45:24.057Z,72.34
2019-03-20T08:46:23.937Z,73.21
2019-03-20T08:48:16.606Z,73.21
2019-03-20T08:49:16.511Z,73.93
2019-03-20T08:51:09.185Z,74.16
2019-03-20T08:52:09.056Z,74.31
2019-03-20T08:54:01.730Z,74.54
2019-03-20T08:55:01.621Z,74.06
2019-03-20T08:56:54.300Z,74.16
2019-03-20T08:57:54.181Z,73.77
2019-03-20T08:59:46.877Z,73.33
2019-03-20T09:00:46.747Z,72.76
2019-03-20T09:02:39.435Z,73.11
2019-03-20T09:03:39.305Z,73.77
2019-03-20T09:05:31.994Z,75.93
2019-03-20T09:06:31.869Z,76.82
2019-03-20T09:08:29.440Z,76.16
2019-03-20T09:09:24.440Z,76.82
2019-03-20T09:11:17.123Z,75.49
2019-03-20T09:12:17.002Z,74.25
2019-03-20T09:14:09.666Z,74.38
2019-03-20T09:15:09.565Z,74.38
2019-03-20T09:17:02.244Z,74.10
2019-03-20T09:18:02.119Z,73.91
2019-03-20T09:19:54.787Z,73.18
2019-03-20T09:20:54.677Z,72.23
2019-03-20T09:22:47.371Z,72.03
2019-03-20T09:23:47.247Z,71.84
2019-03-20T09:25:39.929Z,71.37
2019-03-20T09:26:39.811Z,71.08
2019-03-20T09:28:33.006Z,70.32
2019-03-20T09:29:36.232Z,70.89
2019-03-20T09:31:25.552Z,72.13
2019-03-20T09:32:25.444Z,72.13
2019-03-20T09:34:18.131Z,71.62
2019-03-20T09:35:18.018Z,72.99
2019-03-20T09:37:10.698Z,73.08
2019-03-20T09:38:10.574Z,72.42
2019-03-20T09:40:03.245Z,71.56
2019-03-20T09:41:03.141Z,71.78
2019-03-20T09:42:55.833Z,71.59
2019-03-20T09:43:55.704Z,70.45
2019-03-20T09:45:48.379Z,70.26
2019-03-20T09:46:48.274Z,69.97
2019-03-20T09:48:40.955Z,70.54
2019-03-20T09:49:40.834Z,70.48
2019-03-20T09:51:33.508Z,70.01
2019-03-20T09:52:33.406Z,70.48
2019-03-20T09:54:26.099Z,70.48
2019-03-20T09:55:25.974Z,70.10
2019-03-20T09:57:18.690Z,70.77
2019-03-20T09:58:18.536Z,70.67
2019-03-20T10:00:11.224Z,70.58
2019-03-20T10:01:11.100Z,69.72
2019-03-20T10:03:03.775Z,70.96
2019-03-20T10:04:03.671Z,70.67
2019-03-20T10:05:56.370Z,69.34
2019-03-20T10:06:56.238Z,70.10
2019-03-20T10:08:54.116Z,70.39
2019-03-20T10:09:48.816Z,69.76
2019-03-20T10:11:41.514Z,69.09
2019-03-20T10:12:41.381Z,69.47
2019-03-20T10:14:34.060Z,70.23
2019-03-20T10:15:33.948Z,70.04
2019-03-20T10:17:26.648Z,69.95
2019-03-20T10:18:26.522Z,70.01
2019-03-20T10:20:19.196Z,70.20
2019-03-20T10:21:19.091Z,70.61
2019-03-20T10:23:11.789Z,71.06
2019-03-20T10:24:11.656Z,71.82
2019-03-20T10:26:04.354Z,70.81
2019-03-20T10:27:04.233Z,70.71
2019-03-20T10:28:56.917Z,70.81
2019-03-20T10:29:56.796Z,70.52
2019-03-20T10:31:49.470Z,70.07
2019-03-20T10:32:49.369Z,69.56
2019-03-20T10:34:42.072Z,70.23
2019-03-20T10:35:49.959Z,69.85
2019-03-20T10:37:34.614Z,70.52
2019-03-20T10:38:34.514Z,71.67
2019-03-20T10:40:27.217Z,71.09
2019-03-20T10:41:27.082Z,70.52
2019-03-20T10:43:19.753Z,70.71
2019-03-20T10:44:19.644Z,70.61
2019-03-20T10:46:12.348Z,69.70
2019-03-20T10:47:12.219Z,69.50
2019-03-20T10:49:04.892Z,69.31
2019-03-20T10:50:04.787Z,68.64
2019-03-20T10:51:57.472Z,70.04
2019-03-20T10:52:57.354Z,70.56
2019-03-20T10:54:50.029Z,70.07
2019-03-20T10:55:51.907Z,69.70
2019-03-20T10:57:42.612Z,70.17
2019-03-20T10:58:42.489Z,69.60
2019-03-20T11:00:35.167Z,69.70
2019-03-20T11:01:42.492Z,70.01
2019-03-20T11:03:27.748Z,68.58
2019-03-20T11:04:27.629Z,68.26
2019-03-20T11:06:20.299Z,68.16
2019-03-20T11:07:20.194Z,68.55
2019-03-20T11:09:18.370Z,69.79
2019-03-20T11:10:12.769Z,69.60
2019-03-20T11:12:05.452Z,70.23
2019-03-20T11:13:05.349Z,70.61
2019-03-20T11:14:58.041Z,70.94
2019-03-20T11:15:57.913Z,70.07
2019-03-20T11:17:50.598Z,69.21
2019-03-20T11:18:50.492Z,68.35
2019-03-20T11:20:43.183Z,68.74
2019-03-20T11:21:43.050Z,69.70
2019-03-20T11:23:35.726Z,68.93
2019-03-20T11:24:35.628Z,69.02
2019-03-20T11:26:28.315Z,69.31
2019-03-20T11:27:28.196Z,69.12
2019-03-20T11:29:21.716Z,67.78
2019-03-20T11:30:20.762Z,67.72
2019-03-20T11:32:14.512Z,67.53
2019-03-20T11:33:13.337Z,67.72
2019-03-20T11:35:06.036Z,66.96
2019-03-20T11:36:05.911Z,67.53
2019-03-20T11:37:58.591Z,67.72
2019-03-20T11:38:58.489Z,67.72
2019-03-20T11:40:51.172Z,67.24
2019-03-20T11:41:51.056Z,67.27
2019-03-20T11:43:43.737Z,66.89
2019-03-20T11:44:43.634Z,66.70
2019-03-20T11:46:36.318Z,66.86
2019-03-20T11:47:36.201Z,67.34
2019-03-20T11:49:28.887Z,67.97
2019-03-20T11:50:28.776Z,68.55
2019-03-20T11:52:21.470Z,69.21
2019-03-20T11:53:21.349Z,70.36
2019-03-20T11:55:14.021Z,70.84
2019-03-20T11:56:13.917Z,71.32
2019-03-20T11:58:06.626Z,70.56
2019-03-20T11:59:06.493Z,70.94
2019-03-20T12:00:59.168Z,70.84
2019-03-20T12:01:59.060Z,70.94
2019-03-20T12:03:51.758Z,71.51
2019-03-20T12:04:53.892Z,71.51
2019-03-20T12:06:44.376Z,70.75
2019-03-20T12:07:44.208Z,71.67
2019-03-20T12:09:40.989Z,72.81
2019-03-20T12:10:36.767Z,72.14
2019-03-20T12:12:29.439Z,71.99
2019-03-20T12:13:29.334Z,71.51
2019-03-20T12:15:22.028Z,70.84
2019-03-20T12:16:21.955Z,71.76
2019-03-20T12:18:14.584Z,73.04
2019-03-20T12:19:14.476Z,71.99
2019-03-20T12:21:07.264Z,72.37
2019-03-20T12:22:07.134Z,72.18
2019-03-20T12:23:59.832Z,71.51
2019-03-20T12:24:59.728Z,72.22
2019-03-20T12:26:52.417Z,70.27
2019-03-20T12:27:52.295Z,70.36
2019-03-20T12:29:44.968Z,70.11
2019-03-20T12:30:44.864Z,70.36
2019-03-20T12:32:37.562Z,70.94
2019-03-20T12:33:37.442Z,71.28
2019-03-20T12:35:30.113Z,72.53
2019-03-20T12:36:30.006Z,71.95
2019-03-20T12:38:22.704Z,72.72
2019-03-20T12:39:22.575Z,71.95
2019-03-20T12:41:15.764Z,71.70
2019-03-20T12:42:15.638Z,70.94
2019-03-20T12:44:09.327Z,71.42
2019-03-20T12:45:09.199Z,70.84
2019-03-20T12:47:01.869Z,70.75
2019-03-20T12:48:01.762Z,70.17
2019-03-20T12:49:54.465Z,70.36
2019-03-20T12:50:54.341Z,70.07
2019-03-20T12:52:47.017Z,71.13
2019-03-20T12:53:46.911Z,71.80
2019-03-20T12:55:39.599Z,72.28
2019-03-20T12:56:39.475Z,72.56
2019-03-20T12:58:32.152Z,71.80
2019-03-20T12:59:32.047Z,70.65
2019-03-20T13:01:24.742Z,70.94
2019-03-20T13:02:24.606Z,70.75
2019-03-20T13:04:17.285Z,70.84
2019-03-20T13:05:17.180Z,70.84
2019-03-20T13:07:10.391Z,71.42
2019-03-20T13:08:10.257Z,71.70
2019-03-20T13:10:03.435Z,71.42
2019-03-20T13:11:02.825Z,71.42
2019-03-20T13:12:56.013Z,71.67
2019-03-20T13:13:55.879Z,71.89
2019-03-20T13:15:48.566Z,72.43
2019-03-20T13:16:48.440Z,72.08
2019-03-20T13:18:41.145Z,71.70
2019-03-20T13:19:41.017Z,72.37
2019-03-20T13:21:33.682Z,71.99
2019-03-20T13:22:33.576Z,71.80
2019-03-20T13:24:26.303Z,71.80
2019-03-20T13:25:26.176Z,71.61
2019-03-20T13:27:18.863Z,71.61
2019-03-20T13:28:18.745Z,71.70
2019-03-20T13:30:19.878Z,71.61
2019-03-20T13:31:11.313Z,71.51
2019-03-20T13:33:04.002Z,70.65
2019-03-20T13:34:03.918Z,71.70
2019-03-20T13:35:56.583Z,71.03
2019-03-20T13:36:56.456Z,71.70
2019-03-20T13:38:49.129Z,71.51
2019-03-20T13:39:49.023Z,70.94
2019-03-20T13:41:41.723Z,71.22
2019-03-20T13:42:41.590Z,71.03
2019-03-20T13:44:34.263Z,70.36
2019-03-20T13:45:34.166Z,70.36
2019-03-20T13:47:26.868Z,69.82
2019-03-20T13:48:26.732Z,69.89
2019-03-20T13:50:19.410Z,70.46
2019-03-20T13:51:19.306Z,70.84
2019-03-20T13:53:12.011Z,71.42
2019-03-20T13:54:11.899Z,70.56
2019-03-20T13:56:04.563Z,71.70
2019-03-20T13:57:04.447Z,71.61
2019-03-20T13:58:57.140Z,71.80
2019-03-20T13:59:57.025Z,72.18
2019-03-20T14:01:49.691Z,74.15
2019-03-20T14:02:49.582Z,74.05
2019-03-20T14:04:42.273Z,74.15
2019-03-20T14:05:42.144Z,74.05
2019-03-20T14:07:35.067Z,74.53
2019-03-20T14:08:35.130Z,74.53
2019-03-20T14:10:27.647Z,74.63
2019-03-20T14:11:27.518Z,75.30
2019-03-20T14:13:20.194Z,75.87
2019-03-20T14:14:20.114Z,75.59
2019-03-20T14:16:12.966Z,75.30
2019-03-20T14:17:12.846Z,76.54
2019-03-20T14:19:06.330Z,76.88
2019-03-20T14:20:06.178Z,76.64
2019-03-20T14:21:59.283Z,76.45
2019-03-20T14:22:59.410Z,75.87
2019-03-20T14:24:51.831Z,76.40
2019-03-20T14:25:51.766Z,77.08
2019-03-20T14:27:44.417Z,77.74
2019-03-20T14:28:44.293Z,77.74
2019-03-20T14:30:36.967Z,77.45
2019-03-20T14:31:36.858Z,78.03
2019-03-20T14:33:29.552Z,79.08
2019-03-20T14:34:29.425Z,79.27
2019-03-20T14:36:22.089Z,80.32
2019-03-20T14:37:21.979Z,80.70
2019-03-20T14:39:14.666Z,80.99
2019-03-20T14:40:14.548Z,80.85
2019-03-20T14:42:07.214Z,82.52
2019-03-20T14:43:07.166Z,81.18
2019-03-20T14:44:59.805Z,81.04
2019-03-20T14:45:59.677Z,81.27
2019-03-20T14:47:52.351Z,82.23
2019-03-20T14:48:52.262Z,82.57
2019-03-20T14:50:44.947Z,82.76
2019-03-20T14:51:44.812Z,82.61
2019-03-20T14:53:37.478Z,82.86
2019-03-20T14:54:37.373Z,83.05
2019-03-20T14:56:30.067Z,84.58
2019-03-20T14:57:29.937Z,84.48
2019-03-20T14:59:22.621Z,84.48
2019-03-20T15:00:22.512Z,84.43
2019-03-20T15:02:15.210Z,84.14
2019-03-20T15:03:15.078Z,83.76
2019-03-20T15:05:07.757Z,83.18
2019-03-20T15:06:07.641Z,83.38
2019-03-20T15:08:00.344Z,82.14
2019-03-20T15:09:00.215Z,82.61
2019-03-20T15:10:52.882Z,82.42
2019-03-20T15:11:52.775Z,82.90
2019-03-20T15:13:45.961Z,82.71
2019-03-20T15:14:45.842Z,83.18
2019-03-20T15:16:38.512Z,83.23
2019-03-20T15:17:38.416Z,82.81
2019-03-20T15:19:31.102Z,82.81
2019-03-20T15:20:31.021Z,82.94
2019-03-20T15:22:23.670Z,83.13
2019-03-20T15:23:23.549Z,83.28
2019-03-20T15:25:16.252Z,83.09
2019-03-20T15:26:16.119Z,83.76
2019-03-20T15:28:08.801Z,84.05
2019-03-20T15:29:08.688Z,83.95
2019-03-20T15:31:01.385Z,83.47
2019-03-20T15:32:01.263Z,83.67
2019-03-20T15:33:53.930Z,83.86
2019-03-20T15:34:53.825Z,83.18
2019-03-20T15:36:46.508Z,84.33
2019-03-20T15:37:46.385Z,84.62
2019-03-20T15:39:39.052Z,84.43
2019-03-20T15:40:38.948Z,84.62
2019-03-20T15:42:31.633Z,84.05
2019-03-20T15:43:31.509Z,83.95
2019-03-20T15:45:24.179Z,83.76
2019-03-20T15:46:24.072Z,83.47
2019-03-20T15:48:16.765Z,83.47
2019-03-20T15:49:16.633Z,83.95
2019-03-20T15:51:09.311Z,84.33
2019-03-20T15:52:09.195Z,84.33
2019-03-20T15:54:01.885Z,83.76
2019-03-20T15:55:01.782Z,84.14
2019-03-20T15:56:56.106Z,84.91
2019-03-20T15:57:54.319Z,84.52
2019-03-20T15:59:47.016Z,84.43
2019-03-20T16:00:46.884Z,83.95
2019-03-20T16:02:39.557Z,83.67
2019-03-20T16:03:39.449Z,83.95
2019-03-20T16:05:32.138Z,83.95
2019-03-20T16:06:32.008Z,84.23
2019-03-20T16:08:24.680Z,84.62
2019-03-20T16:09:24.576Z,84.43
2019-03-20T16:11:17.274Z,85.00
2019-03-20T16:12:17.147Z,84.33
2019-03-20T16:14:09.819Z,83.95
2019-03-20T16:15:09.710Z,84.23
2019-03-20T16:17:02.406Z,84.43
2019-03-20T16:18:02.286Z,85.00
2019-03-20T16:19:54.953Z,85.00
2019-03-20T16:20:54.837Z,85.38
2019-03-20T16:22:47.524Z,84.72
2019-03-20T16:23:47.397Z,84.43
2019-03-20T16:25:40.065Z,84.52
2019-03-20T16:26:39.961Z,84.23
2019-03-20T16:28:32.641Z,84.23
2019-03-20T16:29:32.553Z,84.33
2019-03-20T16:31:25.203Z,84.43
2019-03-20T16:32:25.082Z,84.62
2019-03-20T16:34:17.776Z,84.43
2019-03-20T16:35:17.648Z,84.52
2019-03-20T16:37:10.313Z,84.43
2019-03-20T16:38:10.208Z,85.10
2019-03-20T16:40:02.893Z,85.00
2019-03-20T16:41:02.779Z,84.91
2019-03-20T16:42:55.444Z,85.19
2019-03-20T16:43:55.337Z,84.81
2019-03-20T16:45:48.027Z,85.48
2019-03-20T16:46:47.897Z,85.58
2019-03-20T16:48:40.570Z,85.72
2019-03-20T16:49:40.474Z,86.10
2019-03-20T16:51:33.149Z,86.15
2019-03-20T16:52:33.025Z,86.15
2019-03-20T16:54:25.699Z,86.10
2019-03-20T16:55:25.588Z,86.10
2019-03-20T16:57:18.278Z,85.82
2019-03-20T16:58:18.147Z,86.10
2019-03-20T17:00:10.826Z,86.10
2019-03-20T17:01:10.703Z,85.82
2019-03-20T17:03:03.389Z,86.77
2019-03-20T17:04:03.266Z,86.77
2019-03-20T17:05:55.936Z,86.77
2019-03-20T17:06:55.826Z,86.30
2019-03-20T17:08:48.518Z,86.77
2019-03-20T17:09:48.390Z,86.10
2019-03-20T17:11:41.063Z,86.68
2019-03-20T17:12:40.945Z,86.77
2019-03-20T17:14:33.633Z,87.06
2019-03-20T17:15:33.508Z,86.87
2019-03-20T17:17:26.175Z,87.63
2019-03-20T17:18:26.066Z,86.96
2019-03-20T17:20:18.745Z,87.15
2019-03-20T17:21:18.638Z,87.15
2019-03-20T17:23:11.302Z,87.35
2019-03-20T17:24:11.188Z,87.25
2019-03-20T17:26:03.872Z,87.35
2019-03-20T17:27:03.799Z,87.35
2019-03-20T17:28:56.419Z,87.82
2019-03-20T17:29:56.297Z,87.63
2019-03-20T17:31:48.983Z,88.20
2019-03-20T17:32:48.854Z,87.92
2019-03-20T17:34:41.529Z,88.54
2019-03-20T17:35:41.415Z,88.26
2019-03-20T17:37:34.625Z,88.16
2019-03-20T17:38:34.487Z,88.16
2019-03-20T17:40:27.149Z,88.07
2019-03-20T17:41:36.290Z,88.16
2019-03-20T17:43:19.721Z,89.21
2019-03-20T17:44:19.609Z,89.12
2019-03-20T17:46:12.291Z,88.64
2019-03-20T17:47:12.162Z,89.35
2019-03-20T17:49:04.829Z,88.92
2019-03-20T17:50:04.719Z,89.02
2019-03-20T17:51:57.399Z,89.02
2019-03-20T17:52:57.284Z,89.31
2019-03-20T17:54:49.957Z,89.88
2019-03-20T17:55:49.846Z,89.88
2019-03-20T17:57:42.544Z,89.59
2019-03-20T17:58:42.406Z,89.59
2019-03-20T18:00:35.105Z,89.97
2019-03-20T18:01:34.975Z,90.07
2019-03-20T18:03:27.721Z,90.26
2019-03-20T18:04:27.578Z,90.64
2019-03-20T18:06:20.300Z,90.36
2019-03-20T18:07:20.135Z,90.93
2019-03-20T18:09:12.837Z,90.26
2019-03-20T18:10:12.703Z,90.73
2019-03-20T18:12:05.379Z,91.02
2019-03-20T18:13:05.274Z,90.73
2019-03-20T18:14:57.954Z,91.12
2019-03-20T18:15:57.829Z,91.41
2019-03-20T18:17:50.496Z,91.31
2019-03-20T18:18:50.402Z,91.50
2019-03-20T18:20:43.066Z,91.12
2019-03-20T18:21:42.934Z,91.31
2019-03-20T18:23:35.610Z,91.41
2019-03-20T18:24:35.500Z,91.02
2019-03-20T18:26:28.185Z,91.31
2019-03-20T18:27:28.063Z,91.02
2019-03-20T18:29:20.768Z,91.60
2019-03-20T18:30:20.622Z,91.31
2019-03-20T18:32:13.310Z,91.21
2019-03-20T18:33:13.190Z,91.02
2019-03-20T18:35:05.849Z,91.60
2019-03-20T18:36:05.738Z,91.21
2019-03-20T18:37:58.427Z,91.41
2019-03-20T18:38:58.296Z,91.12
2019-03-20T18:40:50.976Z,91.12
2019-03-20T18:41:57.749Z,91.50
2019-03-20T18:43:43.559Z,91.60
2019-03-20T18:44:43.426Z,91.88
2019-03-20T18:46:36.097Z,91.78
2019-03-20T18:47:35.982Z,91.83
2019-03-20T18:49:28.685Z,92.26
2019-03-20T18:50:28.558Z,92.07
2019-03-20T18:52:21.225Z,92.26
2019-03-20T18:53:21.113Z,92.41
2019-03-20T18:55:13.795Z,92.12
2019-03-20T18:56:13.669Z,92.60
2019-03-20T18:58:06.336Z,92.50
2019-03-20T18:59:06.230Z,92.41
2019-03-20T19:00:58.915Z,92.88
2019-03-20T19:01:58.811Z,93.36
2019-03-20T19:03:51.944Z,93.46
2019-03-20T19:04:51.843Z,93.27
2019-03-20T19:06:44.523Z,93.74
2019-03-20T19:07:44.393Z,93.74
2019-03-20T19:09:37.058Z,93.46
2019-03-20T19:10:36.948Z,93.55
2019-03-20T19:12:29.640Z,93.36
2019-03-20T19:13:29.510Z,93.65
2019-03-20T19:15:22.185Z,93.27
2019-03-20T19:16:22.070Z,93.36
2019-03-20T19:18:14.753Z,93.65
2019-03-20T19:19:14.620Z,93.17
2019-03-20T19:21:07.294Z,93.46
2019-03-20T19:22:07.183Z,94.22
2019-03-20T19:23:59.858Z,92.98
2019-03-20T19:24:59.733Z,92.88
2019-03-20T19:26:52.409Z,93.17
2019-03-20T19:27:52.328Z,93.55
2019-03-20T19:29:44.971Z,92.41
2019-03-20T19:30:44.851Z,92.60
2019-03-20T19:32:38.013Z,93.02
2019-03-20T19:33:37.910Z,92.74
2019-03-20T19:35:30.596Z,92.26
2019-03-20T19:36:30.461Z,92.55
2019-03-20T19:38:23.125Z,93.02
2019-03-20T19:39:23.011Z,92.74
2019-03-20T19:41:15.700Z,92.36
2019-03-20T19:42:19.967Z,92.46
2019-03-20T19:44:08.246Z,92.55
2019-03-20T19:45:08.132Z,91.69
2019-03-20T19:47:00.816Z,92.46
2019-03-20T19:48:00.693Z,92.46
2019-03-20T19:49:53.359Z,92.74
2019-03-20T19:50:53.250Z,92.46
2019-03-20T19:52:45.942Z,92.46
2019-03-20T19:53:45.803Z,92.46
2019-03-20T19:55:38.475Z,92.36
2019-03-20T19:56:38.359Z,92.46
2019-03-20T19:58:31.050Z,92.55
2019-03-20T19:59:30.915Z,92.93
2019-03-20T20:01:23.587Z,92.93
2019-03-20T20:02:23.471Z,92.55
2019-03-20T20:04:16.157Z,92.46
2019-03-20T20:05:16.439Z,92.55
2019-03-20T20:07:08.703Z,92.74
2019-03-20T20:08:08.592Z,92.46
2019-03-20T20:10:01.277Z,92.36
2019-03-20T20:11:01.207Z,92.65
2019-03-20T20:12:53.814Z,92.26
2019-03-20T20:13:53.705Z,92.55
2019-03-20T20:15:46.390Z,92.46
2019-03-20T20:16:46.264Z,92.26
2019-03-20T20:18:38.938Z,92.26
2019-03-20T20:19:38.831Z,92.46
2019-03-20T20:21:31.516Z,92.74
2019-03-20T20:22:31.524Z,92.83
2019-03-20T20:24:24.162Z,92.74
2019-03-20T20:25:23.951Z,92.55
2019-03-20T20:27:16.638Z,92.36
2019-03-20T20:28:16.513Z,92.65
2019-03-20T20:30:09.181Z,93.12
2019-03-20T20:31:09.071Z,92.36
2019-03-20T20:33:01.756Z,92.55
2019-03-20T20:34:01.631Z,92.26
2019-03-20T20:35:54.309Z,92.36
2019-03-20T20:36:54.185Z,92.46
2019-03-20T20:38:46.870Z,92.36
2019-03-20T20:39:46.742Z,92.55
2019-03-20T20:41:39.416Z,92.46
2019-03-20T20:42:43.271Z,92.46
2019-03-20T20:44:31.989Z,92.55
2019-03-20T20:45:31.866Z,92.83
2019-03-20T20:47:24.567Z,92.65
2019-03-20T20:48:24.440Z,92.36
2019-03-20T20:50:17.141Z,92.46
2019-03-20T20:51:17.002Z,92.55
2019-03-20T20:53:09.675Z,92.55
2019-03-20T20:54:09.563Z,92.65
2019-03-20T20:56:02.243Z,92.36
2019-03-20T20:57:02.124Z,92.55
2019-03-20T20:58:54.790Z,92.26
2019-03-20T20:59:54.686Z,91.69
2019-03-20T21:01:47.373Z,92.46
2019-03-20T21:02:47.246Z,92.36
2019-03-20T21:04:39.938Z,92.55
2019-03-20T21:05:39.818Z,92.26
2019-03-20T21:07:32.557Z,92.69
2019-03-20T21:08:32.382Z,92.65
2019-03-20T21:10:25.067Z,92.07
2019-03-20T21:11:24.952Z,92.46
2019-03-20T21:13:17.656Z,92.46
2019-03-20T21:14:17.528Z,92.36
2019-03-20T21:16:10.200Z,92.55
2019-03-20T21:17:10.087Z,92.36
2019-03-20T21:19:02.769Z,92.69
2019-03-20T21:20:02.645Z,92.41
2019-03-20T21:21:55.316Z,92.50
2019-03-20T21:22:55.213Z,92.41
2019-03-20T21:24:47.894Z,92.88
2019-03-20T21:25:47.764Z,92.60
2019-03-20T21:27:40.427Z,93.27
2019-03-20T21:28:40.316Z,93.08
2019-03-20T21:30:33.004Z,93.27
2019-03-20T21:31:32.865Z,92.41
2019-03-20T21:33:25.533Z,92.60
2019-03-20T21:34:25.425Z,92.65
2019-03-20T21:36:18.109Z,92.55
2019-03-20T21:37:17.983Z,92.36
2019-03-20T21:39:10.709Z,92.36
2019-03-20T21:40:10.599Z,92.46
2019-03-20T21:42:03.394Z,92.98
2019-03-20T21:43:07.213Z,92.26
2019-03-20T21:44:55.875Z,92.55
2019-03-20T21:45:55.771Z,91.78
2019-03-20T21:47:48.468Z,91.88
2019-03-20T21:48:48.326Z,91.21
2019-03-20T21:50:41.002Z,91.69
2019-03-20T21:51:40.893Z,91.50
2019-03-20T21:53:33.567Z,91.78
2019-03-20T21:54:33.448Z,92.26
2019-03-20T21:56:26.112Z,92.50
2019-03-20T21:57:25.991Z,91.78
2019-03-20T21:59:18.696Z,92.03
2019-03-20T22:00:18.563Z,92.65
2019-03-20T22:02:11.238Z,92.36
2019-03-20T22:03:11.133Z,92.26
2019-03-20T22:05:03.831Z,91.69
2019-03-20T22:06:03.697Z,91.78
2019-03-20T22:07:56.371Z,92.32
2019-03-20T22:08:56.266Z,92.26
2019-03-20T22:10:48.951Z,92.32
2019-03-20T22:11:48.818Z,92.36
2019-03-20T22:13:41.486Z,92.55
2019-03-20T22:14:41.384Z,92.69
2019-03-20T22:16:34.055Z,92.79
2019-03-20T22:17:33.930Z,93.17
2019-03-20T22:19:26.605Z,92.88
2019-03-20T22:20:26.492Z,92.60
2019-03-20T22:22:19.209Z,92.98
2019-03-20T22:23:19.056Z,92.98
2019-03-20T22:25:11.723Z,93.27
2019-03-20T22:26:11.619Z,94.03
2019-03-20T22:28:04.292Z,93.55
2019-03-20T22:29:04.170Z,93.74
2019-03-20T22:30:56.834Z,93.74
2019-03-20T22:31:56.725Z,93.93
2019-03-20T22:33:49.413Z,93.46
2019-03-20T22:34:49.293Z,93.93
2019-03-20T22:36:41.960Z,93.74
2019-03-20T22:37:41.847Z,93.74
2019-03-20T22:39:34.540Z,93.36
2019-03-20T22:40:34.406Z,93.93
2019-03-20T22:42:27.076Z,93.51
2019-03-20T22:43:30.500Z,93.93
2019-03-20T22:45:19.702Z,93.27
2019-03-20T22:46:19.531Z,92.88
2019-03-20T22:48:12.202Z,93.36
2019-03-20T22:49:12.091Z,93.27
2019-03-20T22:51:04.788Z,93.22
2019-03-20T22:52:04.646Z,93.27
2019-03-20T22:53:57.318Z,93.17
2019-03-20T22:54:57.198Z,93.17
2019-03-20T22:56:49.915Z,93.36
2019-03-20T22:57:49.754Z,93.17
2019-03-20T22:59:42.422Z,93.46
